createdAt,value
2024-01-05T00:13:20.078Z,1.10
2024-01-05T00:33:21.714Z,1.80
2024-01-05T00:53:23.373Z,1.50
2024-01-05T01:13:24.755Z,1.00
2024-01-05T01:33:26.243Z,1.30
2024-01-05T01:53:27.847Z,1.30
2024-01-05T02:13:29.304Z,1.50
2024-01-05T02:33:30.785Z,1.20
2024-01-05T02:53:32.248Z,1.10
2024-01-05T03:13:33.722Z,1.20
2024-01-05T03:33:35.147Z,1.30
2024-01-05T03:53:36.629Z,1.70
2024-01-05T04:13:38.105Z,1.80
2024-01-05T04:33:39.631Z,2.20
2024-01-05T04:53:41.319Z,5.90
2024-01-05T05:13:42.846Z,5.10
2024-01-05T05:33:44.412Z,3.70
2024-01-05T05:53:46.133Z,3.30
2024-01-05T06:13:47.734Z,2.70
2024-01-05T06:33:49.159Z,2.70
2024-01-05T06:53:50.728Z,4.10
2024-01-05T07:13:52.434Z,4.10
2024-01-05T07:33:53.930Z,5.30
2024-01-05T07:53:55.625Z,3.50
2024-01-05T08:13:57.149Z,2.90
2024-01-05T08:33:58.736Z,3.20
2024-01-05T08:54:00.470Z,3.70
2024-01-05T09:14:01.993Z,1.70
2024-01-05T09:34:03.428Z,2.10
2024-01-05T09:54:05.210Z,3.10
2024-01-05T10:14:06.626Z,2.50
2024-01-05T10:34:08.203Z,1.90
2024-01-05T10:54:09.745Z,2.10
2024-01-05T11:14:11.358Z,2.10
2024-01-05T11:34:12.972Z,3.20
2024-01-05T11:54:14.550Z,3.10
2024-01-05T12:14:16.024Z,3.40
2024-01-05T12:34:17.435Z,3.60
2024-01-05T12:54:18.967Z,2.50
2024-01-05T13:14:20.392Z,1.70
2024-01-05T13:34:21.914Z,2.50
2024-01-05T13:54:23.398Z,2.90
2024-01-05T14:14:25.091Z,2.50
2024-01-05T14:34:26.459Z,2.50
2024-01-05T14:54:27.874Z,2.70
2024-01-05T15:14:29.442Z,5.10
2024-01-05T15:34:30.962Z,3.80
2024-01-05T15:54:32.678Z,2.90
2024-01-05T16:14:34.058Z,2.40
2024-01-05T16:34:35.667Z,2.50
2024-01-05T16:54:37.326Z,3.00
2024-01-05T17:14:38.848Z,3.10
2024-01-05T17:34:40.364Z,2.90
2024-01-05T17:54:41.976Z,2.70
2024-01-05T18:14:43.455Z,3.00
2024-01-05T18:34:44.936Z,2.70
2024-01-05T18:54:46.693Z,2.60
2024-01-05T19:14:48.345Z,2.90
2024-01-05T19:34:49.815Z,2.50
2024-01-05T19:54:51.294Z,2.10
2024-01-05T20:14:52.849Z,2.40
2024-01-05T20:34:54.419Z,1.90
2024-01-05T20:54:55.948Z,2.40
2024-01-05T21:14:57.349Z,3.00
2024-01-05T21:34:58.900Z,3.00
2024-01-05T21:55:00.450Z,2.90
2024-01-05T22:15:02.166Z,2.20
2024-01-05T22:35:03.681Z,2.70
2024-01-05T22:55:05.198Z,2.80
2024-01-05T23:15:06.838Z,3.30
2024-01-05T23:35:08.296Z,3.10
2024-01-05T23:55:09.863Z,3.30
